createdAt,value
2022-10-18T00:00:48.027Z,71.14
2022-10-18T00:03:14.506Z,71.24
2022-10-18T00:05:40.949Z,71.26
2022-10-18T00:08:07.428Z,71.60
2022-10-18T00:10:33.968Z,71.10
2022-10-18T00:13:00.490Z,71.47
2022-10-18T00:15:27.162Z,72.14
2022-10-18T00:17:53.604Z,71.75
2022-10-18T00:20:20.072Z,71.33
2022-10-18T00:22:46.584Z,71.40
2022-10-18T00:25:15.183Z,71.54
2022-10-18T00:27:41.668Z,71.22
2022-10-18T00:30:08.767Z,71.35
2022-10-18T00:32:42.211Z,72.27
2022-10-18T00:35:09.515Z,71.91
2022-10-18T00:37:36.367Z,72.11
2022-10-18T00:40:03.053Z,71.88
2022-10-18T00:42:34.301Z,72.23
2022-10-18T00:45:16.689Z,71.97
2022-10-18T00:47:48.601Z,71.94
2022-10-18T00:50:15.395Z,71.58
2022-10-18T00:52:46.789Z,72.17
2022-10-18T00:55:13.555Z,72.17
2022-10-18T00:57:43.022Z,72.31
2022-10-18T01:00:10.882Z,71.84
2022-10-18T01:02:38.623Z,71.79
2022-10-18T01:05:06.013Z,72.08
2022-10-18T01:07:44.997Z,72.33
2022-10-18T01:10:22.176Z,72.68
2022-10-18T01:13:28.670Z,72.35
2022-10-18T01:16:03.704Z,72.50
2022-10-18T01:18:52.981Z,72.39
2022-10-18T01:21:31.619Z,72.26
2022-10-18T01:24:35.727Z,72.36
2022-10-18T01:27:27.358Z,72.23
2022-10-18T01:30:22.288Z,72.79
2022-10-18T01:32:52.706Z,73.00
2022-10-18T01:35:27.037Z,72.82
2022-10-18T01:37:56.040Z,72.17
2022-10-18T01:40:24.376Z,72.23
2022-10-18T01:42:51.032Z,72.68
2022-10-18T01:45:18.974Z,72.24
2022-10-18T01:47:47.433Z,72.82
2022-10-18T01:50:14.078Z,72.78
2022-10-18T01:52:50.279Z,72.76
2022-10-18T01:55:18.362Z,72.36
2022-10-18T01:58:22.568Z,72.60
2022-10-18T02:01:00.921Z,72.50
2022-10-18T02:03:29.342Z,73.08
2022-10-18T02:06:09.405Z,72.75
2022-10-18T02:08:58.587Z,73.16
2022-10-18T02:11:26.955Z,73.41
2022-10-18T02:13:56.453Z,72.85
2022-10-18T02:16:26.067Z,73.10
2022-10-18T02:19:15.814Z,73.30
2022-10-18T02:21:44.241Z,73.23
2022-10-18T02:24:14.001Z,73.13
2022-10-18T02:26:40.663Z,73.36
2022-10-18T02:29:08.434Z,73.00
2022-10-18T02:32:04.950Z,73.26
2022-10-18T02:34:43.130Z,73.49
2022-10-18T02:37:11.273Z,72.99
2022-10-18T02:39:42.467Z,73.08
2022-10-18T02:42:10.856Z,73.07
2022-10-18T02:44:38.248Z,73.56
2022-10-18T02:47:06.470Z,73.33
2022-10-18T02:49:32.995Z,73.51
2022-10-18T02:51:59.571Z,73.70
2022-10-18T02:54:26.004Z,73.24
2022-10-18T02:56:52.600Z,73.45
2022-10-18T02:59:19.045Z,73.22
2022-10-18T03:01:45.562Z,73.37
2022-10-18T03:04:12.083Z,73.49
2022-10-18T03:06:38.621Z,73.33
2022-10-18T03:09:06.020Z,73.66
2022-10-18T03:11:32.636Z,73.91
2022-10-18T03:13:59.116Z,73.81
2022-10-18T03:16:25.639Z,73.73
2022-10-18T03:18:52.119Z,73.18
2022-10-18T03:21:18.590Z,73.65
2022-10-18T03:23:45.010Z,73.66
2022-10-18T03:26:11.558Z,73.99
2022-10-18T03:28:38.050Z,73.79
2022-10-18T03:31:04.725Z,73.87
2022-10-18T03:33:32.154Z,73.72
2022-10-18T03:35:58.638Z,73.83
2022-10-18T03:38:25.131Z,73.58
2022-10-18T03:40:51.710Z,74.23
2022-10-18T03:43:18.152Z,73.58
2022-10-18T03:45:45.142Z,74.01
2022-10-18T03:48:11.712Z,74.30
2022-10-18T03:50:38.494Z,73.61
2022-10-18T03:53:05.087Z,73.90
2022-10-18T03:55:31.813Z,73.85
2022-10-18T03:57:58.345Z,73.28
2022-10-18T04:00:24.934Z,73.64
2022-10-18T04:02:54.920Z,73.26
2022-10-18T04:05:22.669Z,73.74
2022-10-18T04:07:49.193Z,74.09
2022-10-18T04:10:15.985Z,73.85
2022-10-18T04:12:42.424Z,73.44
2022-10-18T04:15:09.597Z,73.99
2022-10-18T04:17:36.082Z,74.41
2022-10-18T04:20:02.560Z,73.98
2022-10-18T04:22:28.988Z,74.78
2022-10-18T04:24:55.448Z,74.52
2022-10-18T04:27:22.130Z,74.34
2022-10-18T04:29:48.634Z,74.47
2022-10-18T04:32:15.155Z,74.32
2022-10-18T04:34:44.647Z,74.10
2022-10-18T04:37:11.205Z,74.32
2022-10-18T04:39:37.701Z,74.10
2022-10-18T04:42:04.151Z,74.02
2022-10-18T04:44:30.666Z,74.36
2022-10-18T04:46:57.087Z,74.33
2022-10-18T04:49:23.567Z,74.26
2022-10-18T04:51:50.021Z,74.68
2022-10-18T04:54:16.551Z,75.04
2022-10-18T04:56:42.984Z,74.85
2022-10-18T04:59:09.483Z,73.99
2022-10-18T05:01:35.929Z,74.49
2022-10-18T05:04:02.430Z,74.21
2022-10-18T05:06:28.895Z,73.93
2022-10-18T05:08:55.373Z,73.94
2022-10-18T05:11:21.940Z,74.47
2022-10-18T05:13:50.188Z,74.57
2022-10-18T05:16:17.780Z,74.54
2022-10-18T05:18:44.333Z,74.49
2022-10-18T05:21:10.840Z,75.12
2022-10-18T05:23:37.281Z,74.78
2022-10-18T05:26:07.331Z,74.91
2022-10-18T05:28:39.241Z,74.70
2022-10-18T05:31:08.901Z,74.89
2022-10-18T05:33:35.960Z,74.46
2022-10-18T05:36:02.818Z,74.34
2022-10-18T05:38:29.292Z,74.55
2022-10-18T05:40:55.787Z,75.13
2022-10-18T05:43:22.228Z,75.07
2022-10-18T05:45:51.734Z,74.37
2022-10-18T05:48:18.710Z,74.50
2022-10-18T05:50:45.468Z,74.30
2022-10-18T05:53:12.831Z,74.32
2022-10-18T05:56:01.997Z,74.04
2022-10-18T05:58:28.746Z,74.36
2022-10-18T06:00:58.964Z,74.53
2022-10-18T06:03:25.464Z,74.13
2022-10-18T06:05:51.906Z,74.23
2022-10-18T06:08:18.397Z,74.59
2022-10-18T06:10:44.835Z,74.67
2022-10-18T06:13:11.290Z,74.74
2022-10-18T06:15:37.709Z,74.47
2022-10-18T06:18:04.201Z,75.17
2022-10-18T06:20:30.640Z,74.84
2022-10-18T06:22:57.103Z,74.96
2022-10-18T06:25:23.544Z,76.29
2022-10-18T06:27:50.016Z,76.26
2022-10-18T06:30:16.518Z,75.75
2022-10-18T06:32:43.010Z,75.36
2022-10-18T06:35:09.639Z,75.71
2022-10-18T06:37:36.377Z,75.50
2022-10-18T06:40:03.055Z,75.14
2022-10-18T06:42:29.710Z,75.32
2022-10-18T06:44:56.217Z,75.30
2022-10-18T06:47:22.721Z,75.72
2022-10-18T06:49:49.400Z,75.48
2022-10-18T06:52:18.668Z,75.04
2022-10-18T06:54:45.502Z,75.20
2022-10-18T06:57:12.048Z,75.30
2022-10-18T06:59:38.540Z,75.27
2022-10-18T07:02:05.109Z,75.67
2022-10-18T07:04:31.607Z,75.49
2022-10-18T07:06:58.103Z,75.33
2022-10-18T07:09:24.588Z,75.35
2022-10-18T07:11:51.003Z,75.23
2022-10-18T07:14:17.427Z,75.57
2022-10-18T07:16:43.877Z,75.62
2022-10-18T07:19:10.394Z,75.37
2022-10-18T07:21:36.851Z,75.68
2022-10-18T07:24:03.665Z,75.73
2022-10-18T07:26:34.106Z,75.83
2022-10-18T07:29:10.199Z,76.08
2022-10-18T07:31:37.407Z,76.10
2022-10-18T07:34:05.481Z,76.13
2022-10-18T07:36:32.043Z,76.11
2022-10-18T07:38:58.686Z,76.45
2022-10-18T07:41:25.480Z,76.16
2022-10-18T07:43:53.079Z,76.48
2022-10-18T07:46:22.007Z,76.68
2022-10-18T07:48:48.656Z,76.81
2022-10-18T07:51:15.278Z,76.64
2022-10-18T07:53:41.745Z,77.15
2022-10-18T07:56:10.801Z,76.96
2022-10-18T07:58:37.450Z,77.09
2022-10-18T08:01:06.207Z,76.79
2022-10-18T08:03:33.308Z,77.21
2022-10-18T08:05:59.921Z,77.25
2022-10-18T08:08:27.080Z,77.17
2022-10-18T08:10:53.734Z,77.22
2022-10-18T08:13:20.641Z,77.03
2022-10-18T08:15:47.817Z,76.83
2022-10-18T08:18:14.480Z,76.73
2022-10-18T08:20:45.220Z,77.31
2022-10-18T08:23:12.120Z,76.98
2022-10-18T08:25:38.625Z,76.82
2022-10-18T08:28:07.075Z,76.49
2022-10-18T08:30:35.274Z,76.80
2022-10-18T08:33:02.756Z,76.85
2022-10-18T08:35:29.256Z,77.73
2022-10-18T08:37:55.698Z,76.97
2022-10-18T08:40:22.379Z,77.73
2022-10-18T08:43:21.445Z,78.17
2022-10-18T08:45:49.726Z,78.91
2022-10-18T08:48:39.737Z,77.12
2022-10-18T08:51:18.239Z,76.50
2022-10-18T08:53:58.245Z,76.54
2022-10-18T08:56:25.712Z,76.14
2022-10-18T08:58:52.171Z,73.81
2022-10-18T09:01:36.413Z,74.88
2022-10-18T09:04:33.456Z,72.96
2022-10-18T09:07:39.896Z,73.29
2022-10-18T09:10:50.394Z,71.19
2022-10-18T09:13:32.210Z,69.46
2022-10-18T09:16:00.750Z,65.20
2022-10-18T09:18:44.298Z,64.06
2022-10-18T09:21:20.905Z,63.37
2022-10-18T09:23:49.963Z,62.50
2022-10-18T09:26:24.245Z,62.21
2022-10-18T09:29:05.788Z,62.39
2022-10-18T09:31:49.332Z,61.57
2022-10-18T09:34:34.669Z,61.55
2022-10-18T09:37:02.026Z,60.64
2022-10-18T09:39:32.696Z,60.25
2022-10-18T09:42:04.895Z,60.76
2022-10-18T09:44:53.432Z,58.15
2022-10-18T09:47:25.291Z,58.33
2022-10-18T09:50:03.652Z,58.10
2022-10-18T09:52:39.898Z,58.04
2022-10-18T09:55:18.370Z,56.69
2022-10-18T09:57:53.414Z,54.77
2022-10-18T10:00:28.708Z,53.38
2022-10-18T10:02:55.330Z,52.27
2022-10-18T10:05:21.797Z,50.95
2022-10-18T10:07:49.407Z,50.22
2022-10-18T10:10:30.319Z,49.26
2022-10-18T10:13:15.177Z,48.71
2022-10-18T10:15:51.789Z,47.65
2022-10-18T10:18:24.575Z,48.53
2022-10-18T10:20:57.069Z,48.56
2022-10-18T10:23:23.477Z,48.49
2022-10-18T10:25:57.118Z,48.18
2022-10-18T10:28:28.577Z,48.27
2022-10-18T10:31:28.216Z,48.30
2022-10-18T10:34:05.101Z,48.27
2022-10-18T10:36:33.643Z,49.07
2022-10-18T10:39:03.044Z,48.40
2022-10-18T10:41:29.996Z,49.17
2022-10-18T10:43:57.129Z,49.96
2022-10-18T10:46:23.811Z,49.86
2022-10-18T10:49:09.567Z,50.06
2022-10-18T10:51:40.793Z,50.75
2022-10-18T10:54:18.987Z,51.28
2022-10-18T10:56:54.726Z,51.68
2022-10-18T10:59:24.727Z,52.23
2022-10-18T11:02:14.083Z,53.04
2022-10-18T11:04:42.186Z,54.06
2022-10-18T11:07:26.984Z,54.09
2022-10-18T11:10:25.951Z,54.28
2022-10-18T11:13:22.503Z,54.55
2022-10-18T11:16:12.077Z,54.80
2022-10-18T11:18:38.577Z,54.76
2022-10-18T11:21:16.532Z,55.19
2022-10-18T11:23:43.920Z,55.63
2022-10-18T11:26:13.394Z,55.71
2022-10-18T11:29:10.939Z,55.42
2022-10-18T11:31:52.617Z,55.52
2022-10-18T11:34:45.064Z,55.91
2022-10-18T11:37:39.660Z,56.27
2022-10-18T11:40:27.853Z,56.57
2022-10-18T11:43:38.998Z,56.15
2022-10-18T11:46:22.608Z,56.30
2022-10-18T11:49:10.780Z,56.14
2022-10-18T11:52:03.642Z,56.17
2022-10-18T11:54:57.470Z,56.72
2022-10-18T11:57:45.392Z,56.78
2022-10-18T12:00:21.131Z,56.39
2022-10-18T12:03:03.168Z,56.61
2022-10-18T12:05:31.715Z,57.14
2022-10-18T12:08:07.017Z,57.01
2022-10-18T12:10:45.691Z,56.93
2022-10-18T12:13:46.580Z,56.65
2022-10-18T12:16:14.146Z,56.50
2022-10-18T12:19:26.688Z,56.07
2022-10-18T12:22:02.479Z,55.80
2022-10-18T12:24:31.655Z,55.64
2022-10-18T12:27:01.272Z,56.31
2022-10-18T12:29:52.516Z,56.55
2022-10-18T12:32:26.945Z,56.01
2022-10-18T12:35:00.369Z,56.25
2022-10-18T12:37:45.476Z,55.95
2022-10-18T12:40:21.564Z,54.96
2022-10-18T12:42:50.800Z,55.33
2022-10-18T12:45:23.977Z,54.88
2022-10-18T12:47:51.197Z,54.47
2022-10-18T12:50:31.348Z,53.70
2022-10-18T12:53:22.424Z,54.04
2022-10-18T12:55:51.746Z,53.64
2022-10-18T12:58:23.665Z,53.62
2022-10-18T13:00:50.077Z,52.73
2022-10-18T13:03:16.480Z,53.43
2022-10-18T13:05:53.003Z,52.86
2022-10-18T13:08:29.371Z,52.33
2022-10-18T13:11:01.589Z,52.02
2022-10-18T13:13:39.354Z,51.60
2022-10-18T13:16:26.809Z,51.21
2022-10-18T13:19:01.307Z,51.11
2022-10-18T13:21:46.147Z,50.86
2022-10-18T13:24:31.088Z,51.16
2022-10-18T13:27:31.368Z,50.76
2022-10-18T13:30:20.560Z,51.03
2022-10-18T13:32:52.754Z,50.67
2022-10-18T13:35:40.897Z,50.33
2022-10-18T13:38:34.844Z,50.10
2022-10-18T13:43:53.582Z,50.67
2022-10-18T13:46:20.738Z,49.84
2022-10-18T13:48:55.000Z,48.71
2022-10-18T13:51:51.877Z,49.07
2022-10-18T13:54:37.073Z,48.76
2022-10-18T13:57:09.578Z,47.84
2022-10-18T13:59:54.021Z,47.02
2022-10-18T14:02:59.411Z,47.00
2022-10-18T14:05:41.705Z,46.42
2022-10-18T14:08:56.465Z,45.88
2022-10-18T14:11:32.040Z,46.50
2022-10-18T14:14:22.079Z,46.08
2022-10-18T14:16:48.510Z,45.76
2022-10-18T14:19:39.115Z,44.45
2022-10-18T14:22:20.910Z,44.25
2022-10-18T14:24:51.621Z,44.04
2022-10-18T14:27:21.195Z,43.45
2022-10-18T14:29:49.577Z,43.33
2022-10-18T14:32:26.759Z,42.44
2022-10-18T14:34:55.767Z,42.82
2022-10-18T14:37:32.948Z,42.61
2022-10-18T14:39:59.847Z,42.73
2022-10-18T14:42:27.772Z,42.70
2022-10-18T14:44:56.426Z,42.92
2022-10-18T14:47:28.610Z,42.29
2022-10-18T14:49:55.238Z,42.67
2022-10-18T14:52:35.477Z,43.03
2022-10-18T14:55:02.839Z,43.08
2022-10-18T14:57:36.181Z,42.86
2022-10-18T15:00:08.033Z,44.13
2022-10-18T15:02:38.705Z,43.74
2022-10-18T15:05:06.709Z,43.67
2022-10-18T15:07:33.981Z,43.36
2022-10-18T15:10:03.003Z,43.65
2022-10-18T15:12:37.009Z,44.00
2022-10-18T15:15:20.653Z,44.22
2022-10-18T15:17:49.240Z,44.24
2022-10-18T15:20:20.953Z,44.26
2022-10-18T15:22:47.690Z,44.45
2022-10-18T15:25:32.003Z,43.81
2022-10-18T15:27:59.591Z,43.57
2022-10-18T15:30:37.937Z,43.83
2022-10-18T15:33:07.139Z,44.23
2022-10-18T15:35:35.733Z,43.56
2022-10-18T15:38:13.371Z,43.95
2022-10-18T15:40:41.224Z,44.40
2022-10-18T15:43:22.695Z,44.50
2022-10-18T15:45:51.680Z,44.92
2022-10-18T15:48:23.238Z,45.15
2022-10-18T15:50:58.454Z,45.24
2022-10-18T15:53:30.939Z,45.99
2022-10-18T15:56:06.297Z,45.90
2022-10-18T15:58:48.078Z,45.81
2022-10-18T16:01:32.365Z,45.47
2022-10-18T16:04:00.823Z,46.25
2022-10-18T16:06:27.318Z,46.80
2022-10-18T16:08:53.967Z,46.37
2022-10-18T16:11:25.428Z,46.70
2022-10-18T16:13:55.260Z,47.17
2022-10-18T16:16:27.010Z,47.69
2022-10-18T16:18:53.774Z,48.21
2022-10-18T16:21:27.697Z,48.54
2022-10-18T16:23:54.458Z,48.80
2022-10-18T16:26:21.950Z,49.07
2022-10-18T16:28:49.591Z,49.62
2022-10-18T16:31:19.836Z,50.04
2022-10-18T16:33:47.043Z,50.45
2022-10-18T16:36:21.320Z,50.55
2022-10-18T16:38:49.470Z,50.72
2022-10-18T16:41:16.247Z,51.02
2022-10-18T16:43:44.618Z,51.47
2022-10-18T16:46:28.610Z,52.28
2022-10-18T16:48:55.501Z,52.76
2022-10-18T16:51:22.367Z,53.08
2022-10-18T16:53:49.232Z,53.29
2022-10-18T16:56:18.555Z,53.70
2022-10-18T16:58:46.426Z,53.70
2022-10-18T17:01:14.825Z,54.30
2022-10-18T17:03:41.394Z,54.60
2022-10-18T17:06:17.788Z,54.81
2022-10-18T17:08:45.179Z,55.50
2022-10-18T17:11:13.329Z,55.19
2022-10-18T17:13:40.326Z,55.39
2022-10-18T17:16:18.904Z,55.90
2022-10-18T17:18:45.402Z,55.83
2022-10-18T17:21:11.844Z,56.55
2022-10-18T17:23:38.326Z,56.00
2022-10-18T17:26:15.034Z,56.65
2022-10-18T17:28:56.742Z,56.80
2022-10-18T17:31:23.561Z,56.93
2022-10-18T17:33:50.072Z,57.47
2022-10-18T17:36:16.698Z,57.83
2022-10-18T17:38:43.132Z,57.74
2022-10-18T17:41:10.944Z,57.95
2022-10-18T17:46:12.562Z,57.84
2022-10-18T17:48:38.989Z,58.40
2022-10-18T17:51:13.464Z,58.75
2022-10-18T17:53:39.989Z,58.38
2022-10-18T17:56:06.941Z,59.11
2022-10-18T17:58:33.538Z,59.11
2022-10-18T18:01:14.220Z,59.07
2022-10-18T18:03:41.147Z,59.00
2022-10-18T18:06:21.117Z,59.55
2022-10-18T18:08:48.876Z,59.90
2022-10-18T18:11:16.964Z,59.93
2022-10-18T18:13:43.501Z,60.01
2022-10-18T18:16:21.518Z,60.14
2022-10-18T18:18:49.915Z,60.56
2022-10-18T18:21:17.048Z,60.46
2022-10-18T18:23:43.636Z,60.20
2022-10-18T18:26:10.326Z,60.61
2022-10-18T18:28:37.474Z,60.68
2022-10-18T18:31:08.333Z,60.84
2022-10-18T18:33:35.840Z,61.03
2022-10-18T18:36:03.896Z,61.65
2022-10-18T18:38:31.885Z,61.74
2022-10-18T18:41:07.407Z,61.42
2022-10-18T18:43:34.864Z,61.66
2022-10-18T18:46:01.773Z,61.46
2022-10-18T18:48:28.663Z,61.56
2022-10-18T18:50:55.379Z,62.19
2022-10-18T18:53:24.054Z,62.61
2022-10-18T18:55:52.381Z,62.68
2022-10-18T18:58:18.919Z,62.34
2022-10-18T19:00:45.674Z,62.44
2022-10-18T19:03:12.184Z,62.86
2022-10-18T19:05:38.716Z,63.29
2022-10-18T19:08:05.351Z,63.64
2022-10-18T19:10:31.959Z,63.20
2022-10-18T19:12:58.485Z,63.50
2022-10-18T19:15:25.011Z,63.47
2022-10-18T19:17:51.486Z,63.85
2022-10-18T19:20:18.130Z,63.98
2022-10-18T19:22:45.178Z,63.66
2022-10-18T19:25:11.754Z,63.67
2022-10-18T19:27:38.262Z,64.15
2022-10-18T19:30:07.751Z,63.95
2022-10-18T19:32:34.845Z,63.99
2022-10-18T19:35:01.384Z,64.34
2022-10-18T19:37:27.815Z,64.03
2022-10-18T19:39:54.289Z,64.35
2022-10-18T19:42:24.196Z,64.72
2022-10-18T19:44:53.000Z,64.31
2022-10-18T19:47:19.565Z,64.79
2022-10-18T19:49:46.334Z,65.39
2022-10-18T19:52:12.817Z,65.66
2022-10-18T19:54:39.593Z,65.61
2022-10-18T19:57:06.047Z,66.16
2022-10-18T19:59:32.537Z,66.09
2022-10-18T20:01:59.024Z,66.49
2022-10-18T20:04:25.533Z,65.65
2022-10-18T20:06:52.038Z,65.75
2022-10-18T20:09:20.622Z,66.73
2022-10-18T20:11:47.385Z,66.87
2022-10-18T20:14:13.848Z,66.39
2022-10-18T20:16:40.312Z,67.07
2022-10-18T20:19:07.608Z,66.92
2022-10-18T20:21:35.329Z,66.96
2022-10-18T20:24:03.094Z,67.25
2022-10-18T20:26:29.664Z,67.08
2022-10-18T20:28:57.913Z,66.78
2022-10-18T20:31:30.015Z,67.27
2022-10-18T20:34:02.654Z,67.93
2022-10-18T20:36:31.845Z,68.47
2022-10-18T20:38:59.296Z,68.64
2022-10-18T20:41:27.698Z,69.18
2022-10-18T20:43:56.681Z,69.55
2022-10-18T20:46:24.295Z,69.70
2022-10-18T20:48:52.545Z,69.35
2022-10-18T20:51:19.725Z,69.33
2022-10-18T20:53:46.295Z,69.86
2022-10-18T20:56:15.698Z,69.92
2022-10-18T20:58:44.195Z,70.11
2022-10-18T21:01:16.766Z,70.65
2022-10-18T21:03:46.403Z,70.79
2022-10-18T21:06:14.125Z,71.03
2022-10-18T21:08:41.392Z,71.42
2022-10-18T21:11:09.220Z,71.60
2022-10-18T21:13:35.886Z,71.95
2022-10-18T21:16:04.178Z,71.83
2022-10-18T21:18:32.720Z,72.07
2022-10-18T21:23:39.980Z,72.26
2022-10-18T21:26:06.962Z,72.29
2022-10-18T21:28:33.489Z,71.60
2022-10-18T21:31:10.238Z,72.21
2022-10-18T21:33:36.695Z,72.44
2022-10-18T21:36:03.750Z,72.04
2022-10-18T21:38:30.214Z,72.40
2022-10-18T21:40:56.754Z,72.17
2022-10-18T21:43:23.204Z,72.38
2022-10-18T21:45:49.721Z,72.63
2022-10-18T21:48:16.212Z,73.03
2022-10-18T21:50:42.741Z,72.73
2022-10-18T21:53:09.194Z,72.58
2022-10-18T21:55:35.969Z,72.56
2022-10-18T21:58:02.432Z,72.26
2022-10-18T22:00:28.909Z,72.49
2022-10-18T22:03:08.310Z,73.34
2022-10-18T22:05:34.839Z,72.35
2022-10-18T22:08:01.595Z,72.33
2022-10-18T22:10:28.276Z,72.68
2022-10-18T22:12:54.933Z,72.65
2022-10-18T22:15:21.561Z,72.87
2022-10-18T22:17:48.073Z,73.06
2022-10-18T22:20:14.666Z,72.62
2022-10-18T22:22:41.132Z,72.77
2022-10-18T22:25:08.065Z,73.53
2022-10-18T22:27:34.822Z,73.14
2022-10-18T22:30:01.640Z,72.96
2022-10-18T22:32:28.096Z,73.23
2022-10-18T22:34:54.577Z,73.49
2022-10-18T22:37:21.038Z,73.38
2022-10-18T22:39:47.503Z,73.17
2022-10-18T22:42:13.957Z,73.67
2022-10-18T22:44:40.433Z,73.06
2022-10-18T22:47:06.874Z,73.20
2022-10-18T22:49:33.329Z,73.35
2022-10-18T22:51:59.791Z,73.41
2022-10-18T22:54:26.256Z,73.80
2022-10-18T22:56:52.670Z,73.42
2022-10-18T22:59:19.301Z,73.69
2022-10-18T23:01:45.743Z,73.04
2022-10-18T23:04:12.167Z,73.28
2022-10-18T23:06:39.501Z,74.04
2022-10-18T23:09:08.654Z,74.07
2022-10-18T23:11:35.907Z,73.52
2022-10-18T23:14:03.460Z,73.41
2022-10-18T23:16:30.202Z,73.22
2022-10-18T23:18:57.983Z,73.32
2022-10-18T23:21:26.356Z,73.15
2022-10-18T23:23:53.883Z,73.97
2022-10-18T23:26:23.437Z,73.60
2022-10-18T23:28:51.680Z,73.98
2022-10-18T23:31:21.429Z,73.35
2022-10-18T23:33:49.457Z,74.12
2022-10-18T23:36:16.580Z,73.51
2022-10-18T23:38:43.321Z,73.81
2022-10-18T23:41:12.693Z,73.70
2022-10-18T23:43:39.293Z,73.75
2022-10-18T23:46:06.112Z,73.87
2022-10-18T23:48:32.745Z,74.21
2022-10-18T23:50:59.447Z,74.19
2022-10-18T23:53:26.251Z,74.12
2022-10-18T23:56:03.197Z,73.70
2022-10-18T23:58:31.927Z,74.05
